sensor_id;sensor_type;location;lat;lon;timestamp;P1;durP1;ratioP1;P2;durP2;ratioP2
71046;SDS011;58703;48.978;8.982;2023-10-19T00:01:18;31.15;;;19.33;;
71046;SDS011;58703;48.978;8.982;2023-10-19T00:03:44;29.13;;;18.55;;
71046;SDS011;58703;48.978;8.982;2023-10-19T00:06:10;26.57;;;18.93;;
71046;SDS011;58703;48.978;8.982;2023-10-19T00:08:37;29.92;;;18.50;;
71046;SDS011;58703;48.978;8.982;2023-10-19T00:11:09;30.33;;;17.02;;
71046;SDS011;58703;48.978;8.982;2023-10-19T00:13:46;24.67;;;17.77;;
71046;SDS011;58703;48.978;8.982;2023-10-19T00:16:15;27.90;;;18.70;;
71046;SDS011;58703;48.978;8.982;2023-10-19T00:18:42;29.20;;;18.50;;
71046;SDS011;58703;48.978;8.982;2023-10-19T00:21:08;29.48;;;19.08;;
71046;SDS011;58703;48.978;8.982;2023-10-19T00:23:47;26.30;;;17.17;;
71046;SDS011;58703;48.978;8.982;2023-10-19T00:26:15;26.85;;;17.45;;
71046;SDS011;58703;48.978;8.982;2023-10-19T00:28:43;27.83;;;17.57;;
71046;SDS011;58703;48.978;8.982;2023-10-19T00:31:12;28.88;;;17.88;;
71046;SDS011;58703;48.978;8.982;2023-10-19T00:33:39;25.70;;;17.48;;
71046;SDS011;58703;48.978;8.982;2023-10-19T00:36:08;24.50;;;16.85;;
71046;SDS011;58703;48.978;8.982;2023-10-19T00:38:38;23.98;;;16.58;;
71046;SDS011;58703;48.978;8.982;2023-10-19T00:41:09;27.33;;;18.43;;
71046;SDS011;58703;48.978;8.982;2023-10-19T00:43:36;26.60;;;18.77;;
71046;SDS011;58703;48.978;8.982;2023-10-19T00:46:18;27.63;;;16.92;;
71046;SDS011;58703;48.978;8.982;2023-10-19T00:48:48;26.35;;;18.35;;
71046;SDS011;58703;48.978;8.982;2023-10-19T00:51:22;25.33;;;18.50;;
71046;SDS011;58703;48.978;8.982;2023-10-19T00:54:04;24.77;;;16.47;;
71046;SDS011;58703;48.978;8.982;2023-10-19T00:56:36;26.25;;;15.85;;
71046;SDS011;58703;48.978;8.982;2023-10-19T00:59:03;27.88;;;17.17;;
71046;SDS011;58703;48.978;8.982;2023-10-19T01:01:53;23.65;;;15.55;;
71046;SDS011;58703;48.978;8.982;2023-10-19T01:04:24;21.65;;;15.80;;
71046;SDS011;58703;48.978;8.982;2023-10-19T01:06:50;28.50;;;16.27;;
71046;SDS011;58703;48.978;8.982;2023-10-19T01:09:46;21.77;;;14.77;;
71046;SDS011;58703;48.978;8.982;2023-10-19T01:12:12;21.58;;;15.13;;
71046;SDS011;58703;48.978;8.982;2023-10-19T01:15:16;23.45;;;15.77;;
71046;SDS011;58703;48.978;8.982;2023-10-19T01:17:44;25.25;;;15.98;;
71046;SDS011;58703;48.978;8.982;2023-10-19T01:20:11;19.97;;;14.20;;
71046;SDS011;58703;48.978;8.982;2023-10-19T01:25:43;20.80;;;15.38;;
71046;SDS011;58703;48.978;8.982;2023-10-19T01:33:34;22.03;;;14.70;;
71046;SDS011;58703;48.978;8.982;2023-10-19T01:36:00;23.75;;;16.25;;
71046;SDS011;58703;48.978;8.982;2023-10-19T01:38:46;25.83;;;17.45;;
71046;SDS011;58703;48.978;8.982;2023-10-19T01:41:15;24.63;;;17.20;;
71046;SDS011;58703;48.978;8.982;2023-10-19T01:43:46;26.67;;;17.50;;
71046;SDS011;58703;48.978;8.982;2023-10-19T01:46:14;24.02;;;16.52;;
71046;SDS011;58703;48.978;8.982;2023-10-19T01:48:52;24.77;;;17.30;;
71046;SDS011;58703;48.978;8.982;2023-10-19T01:51:21;25.95;;;17.02;;
71046;SDS011;58703;48.978;8.982;2023-10-19T01:53:49;23.40;;;16.13;;
71046;SDS011;58703;48.978;8.982;2023-10-19T01:56:15;27.15;;;16.58;;
71046;SDS011;58703;48.978;8.982;2023-10-19T01:58:42;23.27;;;16.52;;
71046;SDS011;58703;48.978;8.982;2023-10-19T02:01:12;25.20;;;15.95;;
71046;SDS011;58703;48.978;8.982;2023-10-19T02:03:42;25.63;;;16.83;;
71046;SDS011;58703;48.978;8.982;2023-10-19T02:06:09;25.50;;;16.95;;
71046;SDS011;58703;48.978;8.982;2023-10-19T02:08:55;24.48;;;17.38;;
71046;SDS011;58703;48.978;8.982;2023-10-19T02:11:27;24.40;;;16.08;;
71046;SDS011;58703;48.978;8.982;2023-10-19T02:13:54;24.10;;;16.25;;
71046;SDS011;58703;48.978;8.982;2023-10-19T02:16:25;23.23;;;15.70;;
71046;SDS011;58703;48.978;8.982;2023-10-19T02:18:51;21.02;;;14.88;;
71046;SDS011;58703;48.978;8.982;2023-10-19T02:21:19;20.63;;;14.85;;
71046;SDS011;58703;48.978;8.982;2023-10-19T02:23:49;20.70;;;14.45;;
71046;SDS011;58703;48.978;8.982;2023-10-19T02:26:16;21.17;;;15.02;;
71046;SDS011;58703;48.978;8.982;2023-10-19T02:28:46;22.73;;;14.57;;
71046;SDS011;58703;48.978;8.982;2023-10-19T02:31:12;19.50;;;14.23;;
71046;SDS011;58703;48.978;8.982;2023-10-19T02:33:44;23.35;;;14.55;;
71046;SDS011;58703;48.978;8.982;2023-10-19T02:36:11;21.17;;;15.00;;
71046;SDS011;58703;48.978;8.982;2023-10-19T02:38:39;23.83;;;15.70;;
71046;SDS011;58703;48.978;8.982;2023-10-19T02:41:06;20.50;;;14.37;;
71046;SDS011;58703;48.978;8.982;2023-10-19T02:43:31;21.67;;;15.23;;
71046;SDS011;58703;48.978;8.982;2023-10-19T02:46:00;21.10;;;14.98;;
71046;SDS011;58703;48.978;8.982;2023-10-19T02:48:27;21.77;;;14.37;;
71046;SDS011;58703;48.978;8.982;2023-10-19T02:50:53;21.73;;;14.77;;
71046;SDS011;58703;48.978;8.982;2023-10-19T02:53:20;20.52;;;15.25;;
71046;SDS011;58703;48.978;8.982;2023-10-19T02:55:46;19.23;;;14.63;;
71046;SDS011;58703;48.978;8.982;2023-10-19T02:58:12;22.92;;;16.02;;
71046;SDS011;58703;48.978;8.982;2023-10-19T03:00:39;22.47;;;15.40;;
71046;SDS011;58703;48.978;8.982;2023-10-19T03:03:05;20.83;;;15.95;;
71046;SDS011;58703;48.978;8.982;2023-10-19T03:05:31;21.27;;;15.55;;
71046;SDS011;58703;48.978;8.982;2023-10-19T03:08:00;22.67;;;15.23;;
71046;SDS011;58703;48.978;8.982;2023-10-19T03:10:33;22.70;;;14.93;;
71046;SDS011;58703;48.978;8.982;2023-10-19T03:13:08;20.27;;;14.95;;
71046;SDS011;58703;48.978;8.982;2023-10-19T03:15:35;21.35;;;15.30;;
71046;SDS011;58703;48.978;8.982;2023-10-19T03:18:03;23.63;;;16.80;;
71046;SDS011;58703;48.978;8.982;2023-10-19T03:20:29;24.77;;;15.80;;
71046;SDS011;58703;48.978;8.982;2023-10-19T03:22:59;21.00;;;14.80;;
71046;SDS011;58703;48.978;8.982;2023-10-19T03:25:27;22.38;;;15.23;;
71046;SDS011;58703;48.978;8.982;2023-10-19T03:28:11;24.00;;;15.77;;
71046;SDS011;58703;48.978;8.982;2023-10-19T03:30:37;24.07;;;16.20;;
71046;SDS011;58703;48.978;8.982;2023-10-19T03:33:06;21.60;;;15.50;;
71046;SDS011;58703;48.978;8.982;2023-10-19T03:35:36;23.05;;;16.30;;
71046;SDS011;58703;48.978;8.982;2023-10-19T03:38:04;23.70;;;15.70;;
71046;SDS011;58703;48.978;8.982;2023-10-19T03:40:44;24.80;;;14.13;;
71046;SDS011;58703;48.978;8.982;2023-10-19T03:43:17;22.67;;;15.05;;
71046;SDS011;58703;48.978;8.982;2023-10-19T03:45:49;20.33;;;14.48;;
71046;SDS011;58703;48.978;8.982;2023-10-19T03:48:19;22.38;;;14.40;;
71046;SDS011;58703;48.978;8.982;2023-10-19T03:51:03;17.63;;;13.13;;
71046;SDS011;58703;48.978;8.982;2023-10-19T03:53:28;20.77;;;13.23;;
71046;SDS011;58703;48.978;8.982;2023-10-19T03:55:55;20.27;;;14.10;;
71046;SDS011;58703;48.978;8.982;2023-10-19T03:58:21;20.70;;;14.77;;
71046;SDS011;58703;48.978;8.982;2023-10-19T04:00:47;19.40;;;13.80;;
71046;SDS011;58703;48.978;8.982;2023-10-19T04:03:16;19.47;;;13.60;;
71046;SDS011;58703;48.978;8.982;2023-10-19T04:05:43;19.80;;;13.95;;
71046;SDS011;58703;48.978;8.982;2023-10-19T04:08:12;18.33;;;12.88;;
71046;SDS011;58703;48.978;8.982;2023-10-19T04:10:41;18.40;;;12.95;;
71046;SDS011;58703;48.978;8.982;2023-10-19T04:13:10;20.67;;;13.50;;
71046;SDS011;58703;48.978;8.982;2023-10-19T04:15:36;19.70;;;14.10;;
71046;SDS011;58703;48.978;8.982;2023-10-19T04:18:02;20.50;;;14.02;;
71046;SDS011;58703;48.978;8.982;2023-10-19T04:20:35;23.27;;;15.52;;
71046;SDS011;58703;48.978;8.982;2023-10-19T04:23:14;19.57;;;14.33;;
71046;SDS011;58703;48.978;8.982;2023-10-19T04:25:40;22.83;;;15.52;;
71046;SDS011;58703;48.978;8.982;2023-10-19T04:28:06;27.52;;;16.50;;
71046;SDS011;58703;48.978;8.982;2023-10-19T04:30:31;24.43;;;15.67;;
71046;SDS011;58703;48.978;8.982;2023-10-19T04:32:58;26.60;;;16.67;;
71046;SDS011;58703;48.978;8.982;2023-10-19T04:35:27;24.25;;;15.93;;
71046;SDS011;58703;48.978;8.982;2023-10-19T04:37:55;28.93;;;16.83;;
71046;SDS011;58703;48.978;8.982;2023-10-19T04:40:23;26.38;;;15.68;;
71046;SDS011;58703;48.978;8.982;2023-10-19T04:42:50;23.33;;;14.60;;
71046;SDS011;58703;48.978;8.982;2023-10-19T04:45:16;20.33;;;12.82;;
71046;SDS011;58703;48.978;8.982;2023-10-19T04:47:42;21.10;;;14.25;;
71046;SDS011;58703;48.978;8.982;2023-10-19T04:50:08;22.63;;;13.40;;
71046;SDS011;58703;48.978;8.982;2023-10-19T04:52:37;16.75;;;11.15;;
71046;SDS011;58703;48.978;8.982;2023-10-19T04:55:03;17.45;;;11.18;;
71046;SDS011;58703;48.978;8.982;2023-10-19T04:57:30;16.52;;;11.60;;
71046;SDS011;58703;48.978;8.982;2023-10-19T04:59:56;25.63;;;10.23;;
71046;SDS011;58703;48.978;8.982;2023-10-19T05:02:22;17.60;;;11.20;;
71046;SDS011;58703;48.978;8.982;2023-10-19T05:04:49;15.52;;;11.77;;
71046;SDS011;58703;48.978;8.982;2023-10-19T05:07:15;57.70;;;12.88;;
71046;SDS011;58703;48.978;8.982;2023-10-19T05:09:46;24.70;;;12.38;;
71046;SDS011;58703;48.978;8.982;2023-10-19T05:12:13;26.97;;;14.40;;
71046;SDS011;58703;48.978;8.982;2023-10-19T05:14:40;25.60;;;13.82;;
71046;SDS011;58703;48.978;8.982;2023-10-19T05:17:06;21.17;;;14.07;;
71046;SDS011;58703;48.978;8.982;2023-10-19T05:19:34;27.15;;;15.40;;
71046;SDS011;58703;48.978;8.982;2023-10-19T05:22:01;23.83;;;15.00;;
71046;SDS011;58703;48.978;8.982;2023-10-19T05:24:28;21.37;;;13.60;;
71046;SDS011;58703;48.978;8.982;2023-10-19T05:26:55;25.17;;;14.80;;
71046;SDS011;58703;48.978;8.982;2023-10-19T05:29:21;19.08;;;12.27;;
71046;SDS011;58703;48.978;8.982;2023-10-19T05:31:46;84.03;;;38.67;;
71046;SDS011;58703;48.978;8.982;2023-10-19T05:34:12;31.03;;;16.23;;
71046;SDS011;58703;48.978;8.982;2023-10-19T05:36:38;25.98;;;14.80;;
71046;SDS011;58703;48.978;8.982;2023-10-19T05:39:10;19.08;;;12.20;;
71046;SDS011;58703;48.978;8.982;2023-10-19T05:41:36;20.77;;;12.23;;
71046;SDS011;58703;48.978;8.982;2023-10-19T05:44:04;23.08;;;14.05;;
71046;SDS011;58703;48.978;8.982;2023-10-19T05:46:30;22.13;;;13.52;;
71046;SDS011;58703;48.978;8.982;2023-10-19T05:48:56;19.67;;;12.27;;
71046;SDS011;58703;48.978;8.982;2023-10-19T05:51:23;21.33;;;13.23;;
71046;SDS011;58703;48.978;8.982;2023-10-19T05:53:49;25.35;;;14.20;;
71046;SDS011;58703;48.978;8.982;2023-10-19T05:56:16;19.95;;;13.93;;
71046;SDS011;58703;48.978;8.982;2023-10-19T05:58:45;33.60;;;20.13;;
71046;SDS011;58703;48.978;8.982;2023-10-19T06:01:13;36.55;;;19.63;;
71046;SDS011;58703;48.978;8.982;2023-10-19T06:03:39;26.30;;;17.33;;
71046;SDS011;58703;48.978;8.982;2023-10-19T06:06:05;20.67;;;14.70;;
71046;SDS011;58703;48.978;8.982;2023-10-19T06:08:30;26.07;;;16.43;;
71046;SDS011;58703;48.978;8.982;2023-10-19T06:10:57;27.92;;;16.35;;
71046;SDS011;58703;48.978;8.982;2023-10-19T06:13:23;27.73;;;16.38;;
71046;SDS011;58703;48.978;8.982;2023-10-19T06:15:49;24.40;;;16.10;;
71046;SDS011;58703;48.978;8.982;2023-10-19T06:18:14;23.60;;;14.73;;
71046;SDS011;58703;48.978;8.982;2023-10-19T06:20:43;25.92;;;14.02;;
71046;SDS011;58703;48.978;8.982;2023-10-19T06:23:09;20.35;;;14.23;;
71046;SDS011;58703;48.978;8.982;2023-10-19T06:25:38;17.73;;;13.27;;
71046;SDS011;58703;48.978;8.982;2023-10-19T06:28:05;20.50;;;14.48;;
71046;SDS011;58703;48.978;8.982;2023-10-19T06:30:32;22.45;;;14.10;;
71046;SDS011;58703;48.978;8.982;2023-10-19T06:32:58;20.23;;;13.43;;
71046;SDS011;58703;48.978;8.982;2023-10-19T06:35:25;39.50;;;16.05;;
71046;SDS011;58703;48.978;8.982;2023-10-19T06:37:53;26.17;;;15.25;;
71046;SDS011;58703;48.978;8.982;2023-10-19T06:40:20;20.52;;;14.93;;
71046;SDS011;58703;48.978;8.982;2023-10-19T06:42:47;35.35;;;16.70;;
71046;SDS011;58703;48.978;8.982;2023-10-19T06:45:15;36.93;;;18.03;;
71046;SDS011;58703;48.978;8.982;2023-10-19T06:47:45;30.23;;;17.15;;
71046;SDS011;58703;48.978;8.982;2023-10-19T06:50:12;27.40;;;16.65;;
71046;SDS011;58703;48.978;8.982;2023-10-19T06:52:41;28.08;;;16.40;;
71046;SDS011;58703;48.978;8.982;2023-10-19T06:55:09;28.30;;;17.00;;
71046;SDS011;58703;48.978;8.982;2023-10-19T06:57:40;25.93;;;16.17;;
71046;SDS011;58703;48.978;8.982;2023-10-19T07:00:11;22.23;;;15.02;;
71046;SDS011;58703;48.978;8.982;2023-10-19T07:02:44;25.73;;;15.73;;
71046;SDS011;58703;48.978;8.982;2023-10-19T07:05:11;24.50;;;14.73;;
71046;SDS011;58703;48.978;8.982;2023-10-19T07:07:40;18.48;;;14.45;;
71046;SDS011;58703;48.978;8.982;2023-10-19T07:10:07;19.50;;;13.43;;
71046;SDS011;58703;48.978;8.982;2023-10-19T07:12:38;21.30;;;15.23;;
71046;SDS011;58703;48.978;8.982;2023-10-19T07:15:05;19.98;;;14.43;;
71046;SDS011;58703;48.978;8.982;2023-10-19T07:17:33;25.25;;;16.50;;
71046;SDS011;58703;48.978;8.982;2023-10-19T07:20:00;24.92;;;16.83;;
71046;SDS011;58703;48.978;8.982;2023-10-19T07:22:28;23.67;;;16.10;;
71046;SDS011;58703;48.978;8.982;2023-10-19T07:24:54;24.60;;;15.90;;
71046;SDS011;58703;48.978;8.982;2023-10-19T07:27:21;20.23;;;14.35;;
71046;SDS011;58703;48.978;8.982;2023-10-19T07:29:46;20.40;;;14.63;;
71046;SDS011;58703;48.978;8.982;2023-10-19T07:32:13;19.90;;;14.40;;
71046;SDS011;58703;48.978;8.982;2023-10-19T07:34:42;20.90;;;14.55;;
71046;SDS011;58703;48.978;8.982;2023-10-19T07:37:12;23.00;;;15.43;;
71046;SDS011;58703;48.978;8.982;2023-10-19T07:39:47;23.30;;;15.48;;
71046;SDS011;58703;48.978;8.982;2023-10-19T07:42:14;21.48;;;15.20;;
71046;SDS011;58703;48.978;8.982;2023-10-19T07:44:41;23.10;;;15.40;;
71046;SDS011;58703;48.978;8.982;2023-10-19T07:47:06;18.02;;;15.23;;
71046;SDS011;58703;48.978;8.982;2023-10-19T07:49:35;28.88;;;20.85;;
71046;SDS011;58703;48.978;8.982;2023-10-19T07:52:04;26.58;;;18.88;;
71046;SDS011;58703;48.978;8.982;2023-10-19T07:54:32;25.48;;;16.40;;
71046;SDS011;58703;48.978;8.982;2023-10-19T07:57:01;29.80;;;19.73;;
71046;SDS011;58703;48.978;8.982;2023-10-19T07:59:34;25.33;;;17.45;;
71046;SDS011;58703;48.978;8.982;2023-10-19T08:02:00;33.28;;;20.30;;
71046;SDS011;58703;48.978;8.982;2023-10-19T08:04:29;22.35;;;14.90;;
71046;SDS011;58703;48.978;8.982;2023-10-19T08:06:56;19.92;;;14.23;;
71046;SDS011;58703;48.978;8.982;2023-10-19T08:09:25;20.13;;;13.97;;
71046;SDS011;58703;48.978;8.982;2023-10-19T08:11:57;17.05;;;12.45;;
71046;SDS011;58703;48.978;8.982;2023-10-19T08:14:29;15.60;;;10.60;;
71046;SDS011;58703;48.978;8.982;2023-10-19T08:16:56;14.77;;;12.00;;
71046;SDS011;58703;48.978;8.982;2023-10-19T08:19:22;13.30;;;9.00;;
71046;SDS011;58703;48.978;8.982;2023-10-19T08:21:47;9.07;;;7.53;;
71046;SDS011;58703;48.978;8.982;2023-10-19T08:24:13;9.13;;;6.30;;
71046;SDS011;58703;48.978;8.982;2023-10-19T08:26:39;8.55;;;6.18;;
71046;SDS011;58703;48.978;8.982;2023-10-19T08:29:07;7.10;;;6.00;;
71046;SDS011;58703;48.978;8.982;2023-10-19T08:31:41;7.63;;;5.60;;
71046;SDS011;58703;48.978;8.982;2023-10-19T08:34:15;6.60;;;5.30;;
71046;SDS011;58703;48.978;8.982;2023-10-19T08:36:42;8.75;;;5.28;;
71046;SDS011;58703;48.978;8.982;2023-10-19T08:39:08;6.40;;;5.30;;
71046;SDS011;58703;48.978;8.982;2023-10-19T08:41:37;7.35;;;5.50;;
71046;SDS011;58703;48.978;8.982;2023-10-19T08:44:03;7.07;;;4.65;;
71046;SDS011;58703;48.978;8.982;2023-10-19T08:46:42;7.45;;;6.15;;
71046;SDS011;58703;48.978;8.982;2023-10-19T08:49:10;7.80;;;5.80;;
71046;SDS011;58703;48.978;8.982;2023-10-19T08:51:38;7.37;;;5.77;;
71046;SDS011;58703;48.978;8.982;2023-10-19T08:54:04;6.55;;;5.15;;
71046;SDS011;58703;48.978;8.982;2023-10-19T08:56:31;8.63;;;5.20;;
71046;SDS011;58703;48.978;8.982;2023-10-19T08:59:01;8.20;;;5.30;;
71046;SDS011;58703;48.978;8.982;2023-10-19T09:01:27;7.13;;;5.15;;
71046;SDS011;58703;48.978;8.982;2023-10-19T09:03:57;8.43;;;4.97;;
71046;SDS011;58703;48.978;8.982;2023-10-19T09:06:23;9.15;;;4.80;;
71046;SDS011;58703;48.978;8.982;2023-10-19T09:08:50;7.40;;;4.63;;
71046;SDS011;58703;48.978;8.982;2023-10-19T09:11:16;7.57;;;4.63;;
71046;SDS011;58703;48.978;8.982;2023-10-19T09:13:48;11.15;;;6.25;;
71046;SDS011;58703;48.978;8.982;2023-10-19T09:16:18;8.57;;;5.43;;
71046;SDS011;58703;48.978;8.982;2023-10-19T09:18:48;9.65;;;5.82;;
71046;SDS011;58703;48.978;8.982;2023-10-19T09:21:20;8.15;;;6.07;;
71046;SDS011;58703;48.978;8.982;2023-10-19T09:23:54;11.30;;;6.72;;
71046;SDS011;58703;48.978;8.982;2023-10-19T09:26:23;9.93;;;7.00;;
71046;SDS011;58703;48.978;8.982;2023-10-19T09:28:50;10.47;;;7.70;;
71046;SDS011;58703;48.978;8.982;2023-10-19T09:31:18;11.60;;;7.47;;
71046;SDS011;58703;48.978;8.982;2023-10-19T09:33:48;8.68;;;7.32;;
71046;SDS011;58703;48.978;8.982;2023-10-19T09:36:15;11.00;;;7.22;;
71046;SDS011;58703;48.978;8.982;2023-10-19T09:38:45;8.93;;;6.83;;
71046;SDS011;58703;48.978;8.982;2023-10-19T09:41:17;10.75;;;7.55;;
71046;SDS011;58703;48.978;8.982;2023-10-19T09:43:44;10.30;;;7.18;;
71046;SDS011;58703;48.978;8.982;2023-10-19T09:46:12;8.23;;;6.65;;
71046;SDS011;58703;48.978;8.982;2023-10-19T09:48:47;8.90;;;6.37;;
71046;SDS011;58703;48.978;8.982;2023-10-19T09:51:14;10.85;;;7.05;;
71046;SDS011;58703;48.978;8.982;2023-10-19T09:53:41;11.40;;;5.72;;
71046;SDS011;58703;48.978;8.982;2023-10-19T09:56:12;10.13;;;6.32;;
71046;SDS011;58703;48.978;8.982;2023-10-19T09:58:45;11.02;;;6.57;;
71046;SDS011;58703;48.978;8.982;2023-10-19T10:01:13;9.97;;;5.90;;
71046;SDS011;58703;48.978;8.982;2023-10-19T10:03:44;9.75;;;6.80;;
71046;SDS011;58703;48.978;8.982;2023-10-19T10:06:17;11.75;;;6.30;;
71046;SDS011;58703;48.978;8.982;2023-10-19T10:08:52;10.43;;;6.15;;
71046;SDS011;58703;48.978;8.982;2023-10-19T10:11:23;11.95;;;6.60;;
71046;SDS011;58703;48.978;8.982;2023-10-19T10:13:52;8.07;;;6.40;;
71046;SDS011;58703;48.978;8.982;2023-10-19T10:16:21;11.60;;;7.40;;
71046;SDS011;58703;48.978;8.982;2023-10-19T10:18:49;9.98;;;7.22;;
71046;SDS011;58703;48.978;8.982;2023-10-19T10:21:17;11.40;;;6.07;;
71046;SDS011;58703;48.978;8.982;2023-10-19T10:23:52;9.20;;;6.18;;
71046;SDS011;58703;48.978;8.982;2023-10-19T10:26:21;8.07;;;5.47;;
71046;SDS011;58703;48.978;8.982;2023-10-19T10:31:35;8.00;;;5.63;;
71046;SDS011;58703;48.978;8.982;2023-10-19T10:34:08;7.57;;;5.95;;
71046;SDS011;58703;48.978;8.982;2023-10-19T10:39:27;8.00;;;5.43;;
71046;SDS011;58703;48.978;8.982;2023-10-19T10:42:00;11.02;;;5.82;;
71046;SDS011;58703;48.978;8.982;2023-10-19T10:47:18;9.20;;;6.45;;
71046;SDS011;58703;48.978;8.982;2023-10-19T10:52:22;9.40;;;5.70;;
71046;SDS011;58703;48.978;8.982;2023-10-19T10:54:58;11.43;;;5.82;;
71046;SDS011;58703;48.978;8.982;2023-10-19T10:57:32;8.70;;;5.13;;
71046;SDS011;58703;48.978;8.982;2023-10-19T11:00:08;10.75;;;5.70;;
71046;SDS011;58703;48.978;8.982;2023-10-19T11:02:40;10.70;;;8.32;;
71046;SDS011;58703;48.978;8.982;2023-10-19T11:05:15;8.00;;;6.60;;
71046;SDS011;58703;48.978;8.982;2023-10-19T11:08:03;8.68;;;6.05;;
71046;SDS011;58703;48.978;8.982;2023-10-19T11:10:29;7.03;;;5.55;;
71046;SDS011;58703;48.978;8.982;2023-10-19T11:15:53;8.85;;;5.10;;
71046;SDS011;58703;48.978;8.982;2023-10-19T11:18:36;9.20;;;5.20;;
71046;SDS011;58703;48.978;8.982;2023-10-19T11:21:03;7.25;;;5.00;;
71046;SDS011;58703;48.978;8.982;2023-10-19T11:23:40;13.52;;;5.82;;
71046;SDS011;58703;48.978;8.982;2023-10-19T11:26:16;8.25;;;5.18;;
71046;SDS011;58703;48.978;8.982;2023-10-19T11:28:44;5.55;;;4.18;;
71046;SDS011;58703;48.978;8.982;2023-10-19T11:33:45;5.80;;;5.18;;
71046;SDS011;58703;48.978;8.982;2023-10-19T11:36:15;11.25;;;4.65;;
71046;SDS011;58703;48.978;8.982;2023-10-19T11:38:44;11.02;;;4.40;;
71046;SDS011;58703;48.978;8.982;2023-10-19T11:41:11;8.20;;;4.43;;
71046;SDS011;58703;48.978;8.982;2023-10-19T11:43:42;8.20;;;4.22;;
71046;SDS011;58703;48.978;8.982;2023-10-19T11:46:09;10.25;;;4.22;;
71046;SDS011;58703;48.978;8.982;2023-10-19T11:48:36;7.38;;;4.63;;
71046;SDS011;58703;48.978;8.982;2023-10-19T11:51:05;8.85;;;6.28;;
71046;SDS011;58703;48.978;8.982;2023-10-19T11:53:31;14.18;;;7.10;;
71046;SDS011;58703;48.978;8.982;2023-10-19T11:56:04;13.32;;;8.30;;
71046;SDS011;58703;48.978;8.982;2023-10-19T11:58:34;23.92;;;14.13;;
71046;SDS011;58703;48.978;8.982;2023-10-19T12:01:02;16.27;;;11.75;;
71046;SDS011;58703;48.978;8.982;2023-10-19T12:03:37;9.45;;;5.85;;
71046;SDS011;58703;48.978;8.982;2023-10-19T12:06:10;14.32;;;8.30;;
71046;SDS011;58703;48.978;8.982;2023-10-19T12:08:36;11.80;;;9.40;;
71046;SDS011;58703;48.978;8.982;2023-10-19T12:11:04;13.93;;;9.70;;
71046;SDS011;58703;48.978;8.982;2023-10-19T12:13:40;21.17;;;13.15;;
71046;SDS011;58703;48.978;8.982;2023-10-19T12:16:14;22.63;;;14.10;;
71046;SDS011;58703;48.978;8.982;2023-10-19T12:18:46;7.38;;;4.88;;
71046;SDS011;58703;48.978;8.982;2023-10-19T12:21:15;7.43;;;4.78;;
71046;SDS011;58703;48.978;8.982;2023-10-19T12:23:43;9.85;;;5.85;;
71046;SDS011;58703;48.978;8.982;2023-10-19T12:26:09;7.55;;;4.25;;
71046;SDS011;58703;48.978;8.982;2023-10-19T12:28:38;8.70;;;4.47;;
71046;SDS011;58703;48.978;8.982;2023-10-19T12:31:05;16.10;;;7.72;;
71046;SDS011;58703;48.978;8.982;2023-10-19T12:33:37;8.68;;;4.82;;
71046;SDS011;58703;48.978;8.982;2023-10-19T12:36:07;6.65;;;4.32;;
71046;SDS011;58703;48.978;8.982;2023-10-19T12:38:51;11.10;;;8.27;;
71046;SDS011;58703;48.978;8.982;2023-10-19T12:41:20;8.20;;;4.50;;
71046;SDS011;58703;48.978;8.982;2023-10-19T12:43:57;7.45;;;3.67;;
71046;SDS011;58703;48.978;8.982;2023-10-19T12:46:24;6.22;;;3.35;;
71046;SDS011;58703;48.978;8.982;2023-10-19T12:48:56;4.75;;;3.15;;
71046;SDS011;58703;48.978;8.982;2023-10-19T12:51:23;6.30;;;3.75;;
71046;SDS011;58703;48.978;8.982;2023-10-19T12:53:54;6.25;;;4.45;;
71046;SDS011;58703;48.978;8.982;2023-10-19T12:56:20;13.07;;;6.53;;
71046;SDS011;58703;48.978;8.982;2023-10-19T12:58:49;8.03;;;5.00;;
71046;SDS011;58703;48.978;8.982;2023-10-19T13:01:15;10.30;;;4.20;;
71046;SDS011;58703;48.978;8.982;2023-10-19T13:03:46;9.85;;;6.03;;
71046;SDS011;58703;48.978;8.982;2023-10-19T13:06:14;6.03;;;2.78;;
71046;SDS011;58703;48.978;8.982;2023-10-19T13:08:40;5.32;;;2.83;;
71046;SDS011;58703;48.978;8.982;2023-10-19T13:11:09;7.78;;;2.70;;
71046;SDS011;58703;48.978;8.982;2023-10-19T13:13:41;5.00;;;2.65;;
71046;SDS011;58703;48.978;8.982;2023-10-19T13:16:06;3.07;;;2.53;;
71046;SDS011;58703;48.978;8.982;2023-10-19T13:18:34;4.18;;;3.05;;
71046;SDS011;58703;48.978;8.982;2023-10-19T13:21:01;6.25;;;3.33;;
71046;SDS011;58703;48.978;8.982;2023-10-19T13:23:30;3.92;;;2.83;;
71046;SDS011;58703;48.978;8.982;2023-10-19T13:25:58;3.90;;;2.80;;
71046;SDS011;58703;48.978;8.982;2023-10-19T13:28:42;4.57;;;2.87;;
71046;SDS011;58703;48.978;8.982;2023-10-19T13:31:12;4.45;;;3.55;;
71046;SDS011;58703;48.978;8.982;2023-10-19T13:33:39;5.70;;;3.58;;
71046;SDS011;58703;48.978;8.982;2023-10-19T13:36:06;8.98;;;5.55;;
71046;SDS011;58703;48.978;8.982;2023-10-19T13:38:34;19.33;;;10.57;;
71046;SDS011;58703;48.978;8.982;2023-10-19T13:41:03;10.27;;;6.10;;
71046;SDS011;58703;48.978;8.982;2023-10-19T13:43:38;10.80;;;6.30;;
71046;SDS011;58703;48.978;8.982;2023-10-19T13:46:06;6.05;;;4.30;;
71046;SDS011;58703;48.978;8.982;2023-10-19T13:48:32;7.43;;;4.50;;
71046;SDS011;58703;48.978;8.982;2023-10-19T13:50:57;8.57;;;4.60;;
71046;SDS011;58703;48.978;8.982;2023-10-19T13:53:44;4.57;;;2.92;;
71046;SDS011;58703;48.978;8.982;2023-10-19T13:56:10;5.75;;;3.88;;
71046;SDS011;58703;48.978;8.982;2023-10-19T13:58:36;11.60;;;7.43;;
71046;SDS011;58703;48.978;8.982;2023-10-19T14:01:06;15.37;;;8.80;;
71046;SDS011;58703;48.978;8.982;2023-10-19T14:03:34;18.08;;;10.13;;
71046;SDS011;58703;48.978;8.982;2023-10-19T14:06:01;20.17;;;10.27;;
71046;SDS011;58703;48.978;8.982;2023-10-19T14:08:26;14.73;;;8.90;;
71046;SDS011;58703;48.978;8.982;2023-10-19T14:10:52;9.70;;;6.13;;
71046;SDS011;58703;48.978;8.982;2023-10-19T14:13:17;11.25;;;6.03;;
71046;SDS011;58703;48.978;8.982;2023-10-19T14:15:43;30.42;;;17.55;;
71046;SDS011;58703;48.978;8.982;2023-10-19T14:18:09;14.23;;;8.30;;
71046;SDS011;58703;48.978;8.982;2023-10-19T14:20:38;9.40;;;6.72;;
71046;SDS011;58703;48.978;8.982;2023-10-19T14:23:05;11.98;;;7.05;;
71046;SDS011;58703;48.978;8.982;2023-10-19T14:25:36;13.60;;;6.70;;
71046;SDS011;58703;48.978;8.982;2023-10-19T14:28:23;12.73;;;7.38;;
71046;SDS011;58703;48.978;8.982;2023-10-19T14:30:48;11.50;;;6.10;;
71046;SDS011;58703;48.978;8.982;2023-10-19T14:33:15;9.23;;;6.20;;
71046;SDS011;58703;48.978;8.982;2023-10-19T14:35:40;11.40;;;7.90;;
71046;SDS011;58703;48.978;8.982;2023-10-19T14:38:07;10.68;;;6.93;;
71046;SDS011;58703;48.978;8.982;2023-10-19T14:40:34;7.45;;;5.97;;
71046;SDS011;58703;48.978;8.982;2023-10-19T14:43:00;11.50;;;8.10;;
71046;SDS011;58703;48.978;8.982;2023-10-19T14:45:27;11.25;;;8.02;;
71046;SDS011;58703;48.978;8.982;2023-10-19T14:47:56;9.85;;;7.10;;
71046;SDS011;58703;48.978;8.982;2023-10-19T14:50:28;12.23;;;7.80;;
71046;SDS011;58703;48.978;8.982;2023-10-19T14:52:55;12.50;;;8.53;;
71046;SDS011;58703;48.978;8.982;2023-10-19T14:55:21;14.60;;;8.77;;
71046;SDS011;58703;48.978;8.982;2023-10-19T14:57:49;10.70;;;8.38;;
71046;SDS011;58703;48.978;8.982;2023-10-19T15:00:20;12.50;;;8.93;;
71046;SDS011;58703;48.978;8.982;2023-10-19T15:02:47;13.23;;;9.00;;
71046;SDS011;58703;48.978;8.982;2023-10-19T15:05:14;15.55;;;10.25;;
71046;SDS011;58703;48.978;8.982;2023-10-19T15:07:48;21.48;;;11.10;;